Time;durP1;ratioP1;P1;durP2;ratioP2;P2;SDS_P1;SDS_P2;PMS_P1;PMS_P2;Temp;Humidity;BMP_temperature;BMP_pressure;BME280_temperature;BME280_humidity;BME280_pressure;Samples;Min_cycle;Max_cycle;Signal;HPM_P1;HPM_P2
2022/05/13 00:01:04;;;;;;;;;;;;;;;8.86;72.59;100633.17;84811;1329;22723;-73
2022/05/13 00:03:15;;;;;;;;;;;;;;;8.85;72.48;100633.05;84825;1326;25279;-72
2022/05/13 00:05:23;;;;;;;;;;;;;;;8.84;72.66;100634.81;84716;1324;22955;-73
2022/05/13 00:07:32;;;;;;;;;;;;;;;8.82;72.72;100633.98;84833;1326;22717;-80
2022/05/13 00:09:57;;;;;;;;;;;;;;;8.80;72.83;100631.40;84809;1327;22563;-80
2022/05/13 00:12:09;;;;;;;;;;;;;;;8.79;72.95;100633.35;84811;1326;25917;-80
2022/05/13 00:14:19;;;;;;;;;;;;;;;8.80;73.11;100629.33;84801;1330;22744;-80
2022/05/13 00:16:30;;;;;;;;;;;;;;;8.82;72.98;100630.84;84785;1326;22636;-72
2022/05/13 00:18:40;;;;;;;;;;;;;;;8.83;73.00;100631.52;84703;1331;22570;-74
2022/05/13 00:20:48;;;;;;;;;;;;;;;8.83;73.20;100626.64;84706;1328;22799;-72
2022/05/13 00:22:56;;;;;;;;;;;;;;;8.86;73.19;100626.74;84771;1326;23359;-73
2022/05/13 00:25:07;;;;;;;;;;;;;;;8.90;73.32;100623.48;84736;1324;22810;-73
2022/05/13 00:27:14;;;;;;;;;;;;;;;8.93;73.28;100619.94;84828;1326;24343;-72
2022/05/13 00:29:24;;;;;;;;;;;;;;;8.95;73.26;100623.88;84793;1327;22586;-73
2022/05/13 00:31:34;;;;;;;;;;;;;;;8.98;73.25;100624.52;84829;1326;23145;-74
2022/05/13 00:33:43;;;;;;;;;;;;;;;8.99;73.29;100628.11;84709;1331;24058;-73
2022/05/13 00:35:59;;;;;;;;;;;;;;;8.99;73.20;100629.69;84803;1327;22593;-72
2022/05/13 00:38:09;;;;;;;;;;;;;;;8.97;73.14;100635.47;84739;1328;22596;-80
2022/05/13 00:40:16;;;;;;;;;;;;;;;8.96;73.25;100632.56;84789;1324;22866;-80
2022/05/13 00:42:27;;;;;;;;;;;;;;;8.92;73.25;100632.48;84801;1327;24325;-73
2022/05/13 00:44:34;;;;;;;;;;;;;;;8.90;73.46;100626.63;84769;1326;22598;-73
2022/05/13 00:46:44;;;;;;;;;;;;;;;8.89;73.41;100630.31;84771;1328;22561;-73
2022/05/13 00:48:54;;;;;;;;;;;;;;;8.86;73.54;100626.55;84778;1327;22638;-73
2022/05/13 00:51:05;;;;;;;;;;;;;;;8.82;73.57;100623.88;84760;1326;22612;-74
2022/05/13 00:53:13;;;;;;;;;;;;;;;8.79;73.66;100621.52;84718;1332;22567;-73
2022/05/13 00:55:22;;;;;;;;;;;;;;;8.76;73.84;100626.98;84797;1326;25600;-73
2022/05/13 00:57:30;;;;;;;;;;;;;;;8.77;73.92;100631.48;84728;1330;22576;-79
2022/05/13 00:59:38;;;;;;;;;;;;;;;8.80;74.34;100630.17;84785;1327;22560;-80
2022/05/13 01:01:46;;;;;;;;;;;;;;;8.81;74.18;100632.08;84831;1327;22620;-73
2022/05/13 01:03:53;;;;;;;;;;;;;;;8.84;74.29;100635.67;84762;1326;22660;-73
2022/05/13 01:06:05;;;;;;;;;;;;;;;8.84;74.38;100635.14;84825;1326;22560;-74
2022/05/13 01:08:15;;;;;;;;;;;;;;;8.86;74.44;100642.05;84794;1328;24343;-74
2022/05/13 01:10:25;;;;;;;;;;;;;;;8.88;74.40;100643.57;84825;1328;23732;-73
2022/05/13 01:12:32;;;;;;;;;;;;;;;8.87;74.31;100644.82;84827;1325;22583;-79
2022/05/13 01:14:42;;;;;;;;;;;;;;;8.85;74.22;100643.62;84818;1327;25288;-80
2022/05/13 01:19:18;;;;;;;;;;;;;;;8.82;74.55;100647.72;84805;1327;22589;-73
2022/05/13 01:21:29;;;;;;;;;;;;;;;8.82;74.34;100642.67;84837;1329;24314;-79
2022/05/13 01:23:40;;;;;;;;;;;;;;;8.79;74.25;100640.83;84801;1326;25390;-80
2022/05/13 01:25:48;;;;;;;;;;;;;;;8.77;74.68;100645.42;84818;1329;23852;-80
2022/05/13 01:28:05;;;;;;;;;;;;;;;8.81;74.73;100644.63;84827;1327;24267;-81
2022/05/13 01:30:15;;;;;;;;;;;;;;;8.83;74.86;100646.81;84812;1325;22594;-80
2022/05/13 01:32:22;;;;;;;;;;;;;;;8.84;74.85;100643.67;84842;1321;22723;-80
2022/05/13 01:34:32;;;;;;;;;;;;;;;8.82;74.71;100645.64;84827;1327;22593;-80
2022/05/13 01:36:42;;;;;;;;;;;;;;;8.82;75.23;100642.33;84848;1328;22930;-80
2022/05/13 01:38:49;;;;;;;;;;;;;;;8.86;75.10;100642.58;84831;1326;22671;-80
2022/05/13 01:40:59;;;;;;;;;;;;;;;8.90;75.00;100648.36;84825;1330;23197;-78
2022/05/13 01:43:07;;;;;;;;;;;;;;;8.93;74.90;100648.31;84812;1327;24247;-80
2022/05/13 01:45:15;;;;;;;;;;;;;;;8.90;74.90;100643.85;84791;1327;22608;-80
2022/05/13 01:47:25;;;;;;;;;;;;;;;8.88;74.98;100647.21;84816;1325;22606;-80
2022/05/13 01:49:35;;;;;;;;;;;;;;;8.87;75.22;100648.81;84811;1328;23970;-80
2022/05/13 01:51:42;;;;;;;;;;;;;;;8.86;75.07;100647.79;84773;1326;22597;-73
2022/05/13 01:53:52;;;;;;;;;;;;;;;8.84;74.99;100645.58;84790;1323;22567;-72
2022/05/13 01:56:03;;;;;;;;;;;;;;;8.81;75.24;100640.78;84793;1322;22680;-79
2022/05/13 01:58:10;;;;;;;;;;;;;;;8.79;75.47;100640.84;84808;1326;24270;-80
2022/05/13 02:00:18;;;;;;;;;;;;;;;8.79;75.58;100641.00;84795;1326;23045;-80
2022/05/13 02:02:25;;;;;;;;;;;;;;;8.79;75.57;100638.05;84815;1326;22556;-73
2022/05/13 02:04:35;;;;;;;;;;;;;;;8.78;75.56;100634.08;84826;1327;22576;-73
2022/05/13 02:06:45;;;;;;;;;;;;;;;8.77;75.79;100632.54;84801;1327;22553;-73
2022/05/13 02:08:54;;;;;;;;;;;;;;;8.77;75.71;100629.77;84795;1326;22569;-73
2022/05/13 02:11:04;;;;;;;;;;;;;;;8.76;75.89;100632.02;84820;1327;23831;-73
2022/05/13 02:13:11;;;;;;;;;;;;;;;8.76;76.01;100636.20;84810;1326;22732;-73
2022/05/13 02:15:22;;;;;;;;;;;;;;;8.77;76.24;100634.63;84823;1321;22573;-72
2022/05/13 02:17:29;;;;;;;;;;;;;;;8.79;76.45;100640.13;84742;1327;22584;-73
2022/05/13 02:19:37;;;;;;;;;;;;;;;8.84;76.25;100643.16;84790;1329;23933;-73
2022/05/13 02:21:44;;;;;;;;;;;;;;;8.88;76.18;100641.64;84802;1327;23868;-80
2022/05/13 02:23:51;;;;;;;;;;;;;;;8.90;75.93;100641.92;84804;1327;22846;-80
2022/05/13 02:26:03;;;;;;;;;;;;;;;8.91;75.95;100639.81;84780;1327;22681;-79
2022/05/13 02:28:13;;;;;;;;;;;;;;;8.93;76.05;100636.83;84815;1327;24257;-80
2022/05/13 02:30:23;;;;;;;;;;;;;;;8.98;76.10;100629.88;84795;1327;22570;-81
2022/05/13 02:32:34;;;;;;;;;;;;;;;9.02;75.86;100626.30;84859;1326;22623;-73
2022/05/13 02:34:41;;;;;;;;;;;;;;;9.03;75.59;100623.83;84803;1321;22554;-73
2022/05/13 02:36:51;;;;;;;;;;;;;;;9.04;75.55;100621.19;84790;1326;22774;-73
2022/05/13 02:38:59;;;;;;;;;;;;;;;9.02;75.32;100615.86;84821;1326;22641;-73
2022/05/13 02:41:15;;;;;;;;;;;;;;;8.98;75.30;100615.63;84803;1327;22592;-79
2022/05/13 02:43:23;;;;;;;;;;;;;;;8.91;75.21;100614.23;84811;1325;22574;-80
2022/05/13 02:45:33;;;;;;;;;;;;;;;8.87;75.22;100614.88;84780;1330;23254;-79
2022/05/13 02:47:41;;;;;;;;;;;;;;;8.83;74.97;100613.93;84746;1327;23244;-78
2022/05/13 02:50:17;;;;;;;;;;;;;;;8.78;74.99;100616.31;84809;1327;22706;-80
2022/05/13 02:52:18;;;;;;;;;;;;;;;8.71;75.00;100619.47;84796;1330;22588;-73
2022/05/13 02:54:28;;;;;;;;;;;;;;;8.68;75.01;100618.36;84800;1327;22734;-72
2022/05/13 02:56:35;;;;;;;;;;;;;;;8.63;74.76;100621.77;84834;1322;22592;-73
2022/05/13 02:58:45;;;;;;;;;;;;;;;8.56;74.72;100619.52;84777;1327;22559;-73
2022/05/13 03:00:54;;;;;;;;;;;;;;;8.46;74.81;100614.91;84829;1327;23797;-76
2022/05/13 03:03:01;;;;;;;;;;;;;;;8.36;74.81;100614.09;84784;1327;22632;-80
2022/05/13 03:05:09;;;;;;;;;;;;;;;8.32;75.20;100618.53;84819;1326;22554;-79
2022/05/13 03:07:16;;;;;;;;;;;;;;;8.28;75.23;100616.55;84837;1327;22563;-79
2022/05/13 03:09:26;;;;;;;;;;;;;;;8.24;75.05;100619.94;84764;1325;22817;-79
2022/05/13 03:11:38;;;;;;;;;;;;;;;8.18;74.86;100621.29;84788;1326;22796;-70
2022/05/13 03:13:45;;;;;;;;;;;;;;;8.14;75.09;100625.41;84828;1326;22592;-73
2022/05/13 03:16:04;;;;;;;;;;;;;;;8.10;75.33;100625.16;84816;1326;22566;-74
2022/05/13 03:18:12;;;;;;;;;;;;;;;8.07;75.29;100623.31;84066;1330;1003226;-72
2022/05/13 03:20:23;;;;;;;;;;;;;;;8.03;75.37;100619.77;84808;1325;22561;-72
2022/05/13 03:22:30;;;;;;;;;;;;;;;8.00;75.85;100618.27;84790;1326;22590;-73
2022/05/13 03:24:37;;;;;;;;;;;;;;;7.99;75.74;100617.77;84791;1327;24086;-72
2022/05/13 03:26:48;;;;;;;;;;;;;;;7.98;75.91;100617.44;84796;1326;22563;-78
2022/05/13 03:28:58;;;;;;;;;;;;;;;7.99;75.85;100614.98;84820;1326;25432;-79
2022/05/13 03:31:05;;;;;;;;;;;;;;;8.01;76.41;100612.48;84789;1327;22587;-80
2022/05/13 03:33:16;;;;;;;;;;;;;;;8.05;76.39;100612.42;84802;1327;22637;-79
2022/05/13 03:35:23;;;;;;;;;;;;;;;8.08;76.52;100612.67;84806;1321;22635;-79
2022/05/13 03:37:30;;;;;;;;;;;;;;;8.15;76.89;100609.90;84818;1330;22599;-73
2022/05/13 03:39:37;;;;;;;;;;;;;;;8.33;76.98;100607.73;84810;1329;22707;-73
2022/05/13 03:41:48;;;;;;;;;;;;;;;8.80;77.13;100605.65;84782;1326;22582;-80
2022/05/13 03:43:55;;;;;;;;;;;;;;;9.41;77.51;100607.23;84811;1326;24267;-79
2022/05/13 03:46:05;;;;;;;;;;;;;;;10.23;77.94;100606.79;84830;1323;22561;-79
2022/05/13 03:48:15;;;;;;;;;;;;;;;11.18;76.65;100603.51;84784;1326;23885;-79
2022/05/13 03:50:22;;;;;;;;;;;;;;;12.07;75.26;100605.02;84813;1327;22578;-79
2022/05/13 03:52:30;;;;;;;;;;;;;;;12.95;73.17;100604.80;84813;1322;22875;-79
2022/05/13 03:54:40;;;;;;;;;;;;;;;13.77;70.93;100605.29;84813;1327;23894;-79
2022/05/13 03:56:50;;;;;;;;;;;;;;;14.62;68.05;100603.91;84793;1327;22626;-72
2022/05/13 03:58:57;;;;;;;;;;;;;;;15.43;65.73;100600.02;84817;1326;22576;-73
2022/05/13 04:01:07;;;;;;;;;;;;;;;16.13;62.66;100599.80;84808;1325;23527;-79
2022/05/13 04:03:15;;;;;;;;;;;;;;;16.71;60.09;100593.96;84824;1327;22567;-80
2022/05/13 04:10:15;;;;;;;;;;;;;;;18.72;52.86;100584.94;84821;1325;22841;-80
2022/05/13 04:17:23;;;;;;;;;;;;;;;18.19;49.62;100581.30;84628;1328;25291;-73
2022/05/13 04:19:34;;;;;;;;;;;;;;;17.56;50.21;100582.36;84148;1321;901744;-73
2022/05/13 04:21:44;;;;;;;;;;;;;;;17.03;50.66;100586.21;84811;1327;22872;-74
2022/05/13 04:23:56;;;;;;;;;;;;;;;16.61;51.58;100590.84;84706;1327;22580;-73
2022/05/13 04:26:04;;;;;;;;;;;;;;;16.19;51.97;100594.04;84831;1326;23022;-73
2022/05/13 04:28:14;;;;;;;;;;;;;;;15.84;52.69;100598.63;84780;1327;22587;-73
2022/05/13 04:30:24;;;;;;;;;;;;;;;15.63;53.02;100592.93;84797;1326;22591;-73
2022/05/13 04:32:31;;;;;;;;;;;;;;;15.46;53.20;100594.57;84814;1326;22573;-80
2022/05/13 04:34:41;;;;;;;;;;;;;;;15.31;53.46;100593.09;84803;1326;22573;-79
2022/05/13 04:36:52;;;;;;;;;;;;;;;15.14;53.80;100594.00;84793;1321;22936;-73
2022/05/13 04:38:59;;;;;;;;;;;;;;;15.01;54.29;100590.13;84768;1326;22763;-73
2022/05/13 04:43:36;;;;;;;;;;;;;;;15.46;54.25;100588.41;84794;1327;22600;-73
2022/05/13 04:45:47;;;;;;;;;;;;;;;16.39;54.32;100587.41;84795;1326;22579;-73
2022/05/13 04:50:24;;;;;;;;;;;;;;;18.66;51.29;100574.25;84816;1327;24289;-72
2022/05/13 04:52:34;;;;;;;;;;;;;;;19.79;49.83;100575.63;84806;1325;22562;-75
2022/05/13 04:54:45;;;;;;;;;;;;;;;20.84;46.75;100577.67;84715;1328;22896;-72
2022/05/13 04:56:52;;;;;;;;;;;;;;;21.85;44.23;100574.38;84849;1324;22667;-73
2022/05/13 04:58:59;;;;;;;;;;;;;;;22.71;42.54;100572.91;84798;1326;23142;-73
2022/05/13 05:01:07;;;;;;;;;;;;;;;23.32;40.75;100574.27;84807;1328;23878;-80
2022/05/13 05:03:14;;;;;;;;;;;;;;;24.00;38.68;100578.27;84831;1327;24775;-79
2022/05/13 05:05:22;;;;;;;;;;;;;;;24.69;36.74;100577.27;84794;1326;22571;-80
2022/05/13 05:07:29;;;;;;;;;;;;;;;25.23;35.56;100573.45;84823;1329;22582;-81
2022/05/13 05:09:39;;;;;;;;;;;;;;;25.54;34.79;100569.14;84810;1321;24273;-81
2022/05/13 05:11:49;;;;;;;;;;;;;;;26.05;34.14;100569.66;84827;1327;22712;-82
2022/05/13 05:13:59;;;;;;;;;;;;;;;26.52;32.81;100570.61;84790;1326;22611;-82
2022/05/13 05:16:07;;;;;;;;;;;;;;;26.92;31.95;100570.08;84828;1327;25319;-82
2022/05/13 05:18:17;;;;;;;;;;;;;;;27.32;31.25;100569.73;84792;1326;25882;-81
2022/05/13 05:20:24;;;;;;;;;;;;;;;27.68;30.37;100568.20;84775;1327;22574;-81
2022/05/13 05:22:32;;;;;;;;;;;;;;;28.09;29.53;100567.40;84834;1326;25265;-81
2022/05/13 05:24:42;;;;;;;;;;;;;;;28.37;28.82;100563.82;84808;1326;22919;-81
2022/05/13 05:26:52;;;;;;;;;;;;;;;28.62;28.13;100563.58;84816;1326;22598;-80
2022/05/13 05:28:59;;;;;;;;;;;;;;;28.91;27.64;100558.67;84818;1326;22578;-82
2022/05/13 05:31:11;;;;;;;;;;;;;;;29.24;27.10;100554.23;84762;1327;22907;-81
2022/05/13 05:33:18;;;;;;;;;;;;;;;29.48;27.02;100557.05;84818;1326;22581;-81
2022/05/13 05:35:28;;;;;;;;;;;;;;;29.60;26.57;100551.31;84813;1325;24200;-83
2022/05/13 05:37:38;;;;;;;;;;;;;;;29.64;26.34;100552.30;84813;1327;23097;-72
2022/05/13 05:39:45;;;;;;;;;;;;;;;29.92;26.40;100550.29;84781;1328;22573;-73
2022/05/13 05:41:52;;;;;;;;;;;;;;;30.27;25.53;100555.01;84852;1328;25285;-73
2022/05/13 05:44:02;;;;;;;;;;;;;;;30.42;25.18;100555.42;84791;1327;22847;-74
2022/05/13 05:46:09;;;;;;;;;;;;;;;30.50;24.83;100551.59;84780;1327;22568;-73
2022/05/13 05:48:22;;;;;;;;;;;;;;;30.65;24.53;100552.45;84758;1322;22576;-82
2022/05/13 05:50:32;;;;;;;;;;;;;;;30.84;24.50;100551.61;84827;1325;22594;-82
2022/05/13 05:52:39;;;;;;;;;;;;;;;31.13;24.13;100553.85;84824;1327;22560;-80
2022/05/13 05:57:16;;;;;;;;;;;;;;;31.57;23.38;100556.79;84840;1326;25311;-82
2022/05/13 05:59:26;;;;;;;;;;;;;;;31.78;22.71;100557.23;84789;1326;22898;-82
2022/05/13 06:01:37;;;;;;;;;;;;;;;31.95;22.54;100559.30;84798;1325;23894;-72
2022/05/13 06:03:44;;;;;;;;;;;;;;;32.20;22.41;100561.50;84783;1322;24276;-72
2022/05/13 06:05:57;;;;;;;;;;;;;;;32.57;21.78;100563.49;84818;1325;22579;-73
2022/05/13 06:08:04;;;;;;;;;;;;;;;32.80;21.33;100564.14;84776;1326;23820;-82
2022/05/13 06:10:12;;;;;;;;;;;;;;;33.04;20.97;100565.65;84824;1327;22573;-82
2022/05/13 06:12:19;;;;;;;;;;;;;;;33.24;20.52;100561.25;84744;1324;22604;-81
2022/05/13 06:14:27;;;;;;;;;;;;;;;33.44;20.43;100556.00;84817;1321;22640;-82
2022/05/13 06:16:37;;;;;;;;;;;;;;;33.64;20.03;100560.80;84797;1326;25493;-83
2022/05/13 06:18:47;;;;;;;;;;;;;;;33.80;19.82;100558.17;84737;1327;24328;-83
2022/05/13 06:20:54;;;;;;;;;;;;;;;33.90;19.76;100558.45;84783;1325;25923;-76
2022/05/13 06:23:01;;;;;;;;;;;;;;;33.99;19.36;100557.77;84834;1327;22543;-72
2022/05/13 06:25:13;;;;;;;;;;;;;;;33.92;19.30;100556.20;84834;1327;22560;-73
2022/05/13 06:27:21;;;;;;;;;;;;;;;33.84;19.47;100555.38;84843;1329;24145;-83
2022/05/13 06:29:32;;;;;;;;;;;;;;;33.89;19.00;100552.97;84801;1326;22680;-81
2022/05/13 06:31:42;;;;;;;;;;;;;;;33.90;19.35;100554.64;84824;1326;25276;-73
2022/05/13 06:33:52;;;;;;;;;;;;;;;34.12;19.57;100555.66;84815;1325;22569;-73
2022/05/13 06:36:03;;;;;;;;;;;;;;;34.51;18.91;100556.02;84806;1326;22686;-80
2022/05/13 06:38:13;;;;;;;;;;;;;;;34.70;18.98;100546.92;84790;1329;25289;-81
2022/05/13 06:40:22;;;;;;;;;;;;;;;34.72;18.72;100548.00;84824;1327;22628;-81
2022/05/13 06:42:29;;;;;;;;;;;;;;;34.72;18.96;100548.36;84855;1327;23920;-82
2022/05/13 06:44:39;;;;;;;;;;;;;;;34.70;18.86;100545.19;84799;1326;22579;-81
2022/05/13 06:46:47;;;;;;;;;;;;;;;34.92;18.36;100546.21;84821;1326;22805;-84
2022/05/13 06:48:54;;;;;;;;;;;;;;;35.19;17.46;100542.45;84819;1326;24254;-83
2022/05/13 06:51:02;;;;;;;;;;;;;;;35.17;17.55;100540.02;84808;1327;24283;-84
2022/05/13 06:53:09;;;;;;;;;;;;;;;35.27;17.36;100536.51;84698;1327;22732;-84
2022/05/13 06:55:17;;;;;;;;;;;;;;;35.53;17.34;100542.04;84805;1327;22726;-84
2022/05/13 06:57:24;;;;;;;;;;;;;;;35.76;17.22;100541.59;84803;1325;22581;-82
2022/05/13 06:59:32;;;;;;;;;;;;;;;35.92;17.22;100538.55;84804;1326;22560;-81
2022/05/13 07:01:41;;;;;;;;;;;;;;;36.14;16.78;100541.65;84843;1326;24149;-84
2022/05/13 07:03:49;;;;;;;;;;;;;;;36.39;16.50;100541.18;84758;1327;22566;-84
2022/05/13 07:05:56;;;;;;;;;;;;;;;36.66;16.69;100537.72;84784;1326;25408;-73
2022/05/13 07:08:03;;;;;;;;;;;;;;;36.67;16.45;100535.85;84810;1328;22565;-72
2022/05/13 07:10:11;;;;;;;;;;;;;;;36.78;15.98;100536.42;84797;1321;23027;-72
2022/05/13 07:12:22;;;;;;;;;;;;;;;36.74;16.21;100533.35;84805;1323;22569;-84
2022/05/13 07:14:29;;;;;;;;;;;;;;;36.90;16.44;100532.83;84796;1323;22812;-85
2022/05/13 07:16:36;;;;;;;;;;;;;;;37.13;15.81;100530.66;84795;1324;22570;-84
2022/05/13 07:18:47;;;;;;;;;;;;;;;37.35;15.14;100522.66;84815;1326;22592;-84
2022/05/13 07:20:54;;;;;;;;;;;;;;;37.41;15.19;100519.02;84672;1327;24139;-73
2022/05/13 07:23:01;;;;;;;;;;;;;;;37.30;15.07;100524.70;84804;1327;22592;-71
2022/05/13 07:25:10;;;;;;;;;;;;;;;37.22;15.06;100520.52;84808;1327;22570;-72
2022/05/13 07:27:17;;;;;;;;;;;;;;;37.11;15.27;100520.83;84798;1327;25347;-70
2022/05/13 07:29:24;;;;;;;;;;;;;;;37.26;14.97;100517.85;84814;1328;22562;-72
2022/05/13 07:31:34;;;;;;;;;;;;;;;37.35;14.83;100514.20;84813;1321;22594;-72
2022/05/13 07:33:41;;;;;;;;;;;;;;;37.39;15.03;100512.04;84768;1326;22567;-71
2022/05/13 07:35:48;;;;;;;;;;;;;;;37.41;15.40;100510.99;84802;1326;22636;-71
2022/05/13 07:37:56;;;;;;;;;;;;;;;37.55;15.11;100513.21;84758;1327;25305;-73
2022/05/13 07:42:34;;;;;;;;;;;;;;;37.72;14.06;100516.06;84798;1327;22562;-72
2022/05/13 07:44:41;;;;;;;;;;;;;;;37.52;13.99;100515.51;84808;1326;22576;-72
2022/05/13 07:46:49;;;;;;;;;;;;;;;37.38;14.23;100511.80;84821;1321;22571;-74
2022/05/13 07:48:59;;;;;;;;;;;;;;;37.48;14.64;100514.48;84693;1327;23488;-72
2022/05/13 07:51:09;;;;;;;;;;;;;;;37.64;14.08;100509.42;84806;1325;26207;-72
2022/05/13 07:53:19;;;;;;;;;;;;;;;37.79;14.07;100513.77;84799;1323;22618;-73
2022/05/13 07:55:30;;;;;;;;;;;;;;;37.70;13.64;100513.08;84820;1325;24999;-73
2022/05/13 07:57:42;;;;;;;;;;;;;;;37.68;13.84;100508.94;84826;1327;22598;-72
2022/05/13 08:02:17;;;;;;;;;;;;;;;37.61;14.04;100511.85;84451;1333;22731;-72
2022/05/13 08:04:27;;;;;;;;;;;;;;;37.74;14.05;100512.85;84518;1333;22644;-72
2022/05/13 08:06:35;;;;;;;;;;;;;;;37.85;14.11;100515.78;84503;1330;22567;-72
2022/05/13 08:08:43;;;;;;;;;;;;;;;37.87;13.67;100510.45;84749;1326;22565;-72
2022/05/13 08:10:52;;;;;;;;;;;;;;;38.04;13.62;100511.67;84788;1327;22674;-71
2022/05/13 08:12:59;;;;;;;;;;;;;;;38.12;13.50;100513.01;84773;1330;22576;-70
2022/05/13 08:15:10;;;;;;;;;;;;;;;38.05;13.69;100514.02;84696;1327;22845;-71
2022/05/13 08:17:20;;;;;;;;;;;;;;;38.11;13.59;100507.42;84828;1326;22763;-71
2022/05/13 08:19:28;;;;;;;;;;;;;;;38.23;13.64;100506.19;84755;1327;23706;-73
2022/05/13 08:21:35;;;;;;;;;;;;;;;38.33;13.90;100506.92;84708;1329;24196;-72
2022/05/13 08:23:45;;;;;;;;;;;;;;;38.43;13.74;100505.09;84746;1327;25987;-71
2022/05/13 08:25:55;;;;;;;;;;;;;;;38.56;13.44;100507.00;84766;1326;22575;-71
2022/05/13 08:28:07;;;;;;;;;;;;;;;38.46;13.50;100507.17;84775;1326;22564;-71
2022/05/13 08:30:16;;;;;;;;;;;;;;;38.49;13.66;100504.01;84780;1326;24367;-83
2022/05/13 08:32:27;;;;;;;;;;;;;;;38.39;13.40;100496.75;84756;1326;25427;-75
2022/05/13 08:34:35;;;;;;;;;;;;;;;38.33;13.48;100497.33;84757;1327;22811;-75
2022/05/13 08:36:42;;;;;;;;;;;;;;;38.41;13.75;100497.93;84748;1327;22703;-73
2022/05/13 08:38:53;;;;;;;;;;;;;;;38.45;13.58;100494.91;84782;1326;22630;-74
2022/05/13 08:41:28;;;;;;;;;;;;;;;38.64;13.54;100494.23;84783;1327;23949;-72
2022/05/13 08:43:40;;;;;;;;;;;;;;;38.88;13.48;100494.56;84720;1327;23894;-73
2022/05/13 08:45:54;;;;;;;;;;;;;;;39.00;13.29;100489.77;84715;1327;24348;-73
2022/05/13 08:48:05;;;;;;;;;;;;;;;39.01;13.02;100482.21;84780;1325;25750;-77
2022/05/13 08:50:23;;;;;;;;;;;;;;;39.07;13.15;100481.87;84758;1326;22582;-74
2022/05/13 08:55:12;;;;;;;;;;;;;;;38.92;13.16;100474.83;84757;1326;24415;-74
2022/05/13 08:57:45;;;;;;;;;;;;;;;39.01;13.12;100476.20;84787;1327;22685;-74
2022/05/13 08:59:58;;;;;;;;;;;;;;;38.99;12.89;100469.46;84791;1327;22574;-76
2022/05/13 09:02:12;;;;;;;;;;;;;;;38.48;13.32;100467.02;84744;1327;22580;-84
2022/05/13 09:04:32;;;;;;;;;;;;;;;38.34;13.68;100468.91;84721;1324;22671;-83
2022/05/13 09:06:44;;;;;;;;;;;;;;;37.54;13.07;100475.81;84857;1327;24303;-71
2022/05/13 09:08:52;;;;;;;;;;;;;;;36.21;13.12;100481.34;84741;1326;25417;-73
2022/05/13 09:11:09;;;;;;;;;;;;;;;35.46;13.71;100477.06;84740;1326;24044;-73
2022/05/13 09:13:19;;;;;;;;;;;;;;;35.27;14.84;100477.09;84821;1325;22560;-72
2022/05/13 09:15:30;;;;;;;;;;;;;;;35.22;14.96;100469.45;84821;1326;22681;-73
2022/05/13 09:17:39;;;;;;;;;;;;;;;35.28;15.08;100463.35;84860;1325;22629;-72
2022/05/13 09:19:50;;;;;;;;;;;;;;;35.39;15.18;100457.00;84827;1329;22568;-72
2022/05/13 09:22:01;;;;;;;;;;;;;;;35.25;14.86;100457.41;84833;1326;22580;-73
2022/05/13 09:24:09;;;;;;;;;;;;;;;34.98;15.14;100452.83;84813;1322;22916;-73
2022/05/13 09:26:17;;;;;;;;;;;;;;;34.77;15.28;100450.91;84814;1327;22586;-86
2022/05/13 09:28:29;;;;;;;;;;;;;;;34.18;15.31;100450.73;84792;1327;26500;-84
2022/05/13 09:30:38;;;;;;;;;;;;;;;33.74;15.93;100451.34;84797;1326;23943;-83
2022/05/13 09:32:48;;;;;;;;;;;;;;;33.52;16.09;100448.19;84771;1327;22551;-71
2022/05/13 09:35:05;;;;;;;;;;;;;;;33.36;16.19;100442.87;84830;1323;22619;-73
2022/05/13 09:37:21;;;;;;;;;;;;;;;32.99;16.78;100438.70;84774;1325;22589;-85
2022/05/13 09:39:28;;;;;;;;;;;;;;;32.81;17.45;100433.11;84839;1326;22554;-83
2022/05/13 09:41:38;;;;;;;;;;;;;;;32.72;17.19;100425.52;84832;1327;22703;-83
2022/05/13 09:43:54;;;;;;;;;;;;;;;32.32;16.59;100426.29;84809;1327;25427;-83
2022/05/13 09:46:09;;;;;;;;;;;;;;;32.02;16.85;100426.02;84880;1321;22719;-72
2022/05/13 09:48:20;;;;;;;;;;;;;;;31.93;17.09;100423.67;84801;1330;24271;-72
2022/05/13 09:50:29;;;;;;;;;;;;;;;31.85;17.18;100419.27;84797;1323;23148;-73
2022/05/13 09:52:39;;;;;;;;;;;;;;;31.71;17.35;100410.38;84812;1326;22697;-72
2022/05/13 09:54:50;;;;;;;;;;;;;;;31.57;17.94;100408.64;84819;1327;22709;-73
2022/05/13 09:57:07;;;;;;;;;;;;;;;31.51;17.69;100407.66;84837;1327;22604;-84
2022/05/13 09:59:20;;;;;;;;;;;;;;;31.48;17.68;100402.61;84841;1327;22585;-85
2022/05/13 10:01:30;;;;;;;;;;;;;;;31.44;17.20;100395.73;84727;1327;22672;-73
2022/05/13 10:03:40;;;;;;;;;;;;;;;31.16;17.45;100395.10;84796;1323;22668;-72
2022/05/13 10:06:03;;;;;;;;;;;;;;;30.86;17.66;100390.56;84802;1326;22571;-73
2022/05/13 10:08:14;;;;;;;;;;;;;;;30.66;18.28;100389.36;84782;1327;24037;-73
2022/05/13 10:15:16;;;;;;;;;;;;;;;30.28;18.81;100391.83;84799;1322;22577;-84
2022/05/13 10:17:27;;;;;;;;;;;;;;;30.34;18.71;100386.41;84791;1327;23906;-74
2022/05/13 10:19:39;;;;;;;;;;;;;;;30.35;18.45;100379.74;84791;1326;22554;-73
2022/05/13 10:21:50;;;;;;;;;;;;;;;30.39;18.72;100380.70;84813;1320;22564;-75
2022/05/13 10:24:05;;;;;;;;;;;;;;;30.44;18.80;100381.94;84778;1324;22859;-72
2022/05/13 10:26:17;;;;;;;;;;;;;;;30.50;18.77;100379.64;84753;1329;22591;-87
2022/05/13 10:28:27;;;;;;;;;;;;;;;30.49;18.43;100379.42;84768;1327;22557;-74
2022/05/13 10:30:39;;;;;;;;;;;;;;;30.41;18.50;100379.65;84803;1327;23920;-75
2022/05/13 10:32:49;;;;;;;;;;;;;;;30.23;18.70;100378.20;84806;1327;22682;-82
2022/05/13 10:35:00;;;;;;;;;;;;;;;29.86;18.24;100376.41;84790;1326;26552;-83
2022/05/13 10:37:13;;;;;;;;;;;;;;;29.37;18.66;100375.91;84760;1324;22631;-74
2022/05/13 10:39:23;;;;;;;;;;;;;;;29.08;19.43;100368.02;84811;1325;22741;-73
2022/05/13 10:41:33;;;;;;;;;;;;;;;29.09;20.01;100367.09;84794;1326;25255;-74
2022/05/13 10:43:43;;;;;;;;;;;;;;;29.05;20.04;100370.15;84788;1326;25511;-74
2022/05/13 10:45:53;;;;;;;;;;;;;;;28.99;20.06;100369.38;84762;1324;22806;-74
2022/05/13 10:48:17;;;;;;;;;;;;;;;29.10;20.11;100368.17;84788;1327;22572;-85
2022/05/13 10:50:33;;;;;;;;;;;;;;;28.88;20.03;100362.96;84773;1327;25606;-84
2022/05/13 10:52:46;;;;;;;;;;;;;;;28.68;20.11;100358.14;84730;1327;22571;-84
2022/05/13 10:54:58;;;;;;;;;;;;;;;28.65;19.98;100355.16;84815;1326;23031;-84
2022/05/13 10:57:14;;;;;;;;;;;;;;;28.70;19.98;100356.67;84817;1324;22587;-74
2022/05/13 10:59:34;;;;;;;;;;;;;;;28.54;19.63;100352.48;84707;1326;22604;-72
2022/05/13 11:01:49;;;;;;;;;;;;;;;28.52;20.14;100346.97;84775;1326;22572;-87
2022/05/13 11:04:00;;;;;;;;;;;;;;;28.45;20.78;100340.21;84813;1327;23797;-87
2022/05/13 11:06:23;;;;;;;;;;;;;;;28.36;20.31;100339.60;84749;1327;25239;-86
2022/05/13 11:08:33;;;;;;;;;;;;;;;28.30;20.47;100346.77;84783;1327;22591;-74
2022/05/13 11:10:45;;;;;;;;;;;;;;;28.07;20.66;100345.31;84806;1328;22837;-73
2022/05/13 11:12:59;;;;;;;;;;;;;;;27.82;20.58;100344.36;84741;1326;22652;-74
2022/05/13 11:15:11;;;;;;;;;;;;;;;27.60;20.62;100349.10;84738;1325;22590;-74
2022/05/13 11:17:27;;;;;;;;;;;;;;;27.36;21.01;100342.32;84790;1328;22602;-76
2022/05/13 11:19:37;;;;;;;;;;;;;;;27.32;21.69;100346.48;84799;1326;22573;-76
2022/05/13 11:21:46;;;;;;;;;;;;;;;27.43;22.06;100345.65;84787;1327;22590;-77
2022/05/13 11:26:27;;;;;;;;;;;;;;;27.66;22.20;100333.94;84824;1327;23935;-77
2022/05/13 11:29:08;;;;;;;;;;;;;;;27.61;21.88;100334.11;84815;1326;22575;-76
2022/05/13 11:31:22;;;;;;;;;;;;;;;27.55;22.11;100331.27;84738;1327;22659;-77
2022/05/13 11:33:41;;;;;;;;;;;;;;;27.50;22.12;100331.39;84812;1327;22584;-79
2022/05/13 11:35:55;;;;;;;;;;;;;;;27.39;22.03;100335.13;84789;1328;25489;-77
2022/05/13 11:38:04;;;;;;;;;;;;;;;27.33;21.40;100334.20;84787;1326;22577;-74
2022/05/13 11:40:29;;;;;;;;;;;;;;;27.18;22.03;100326.52;84724;1328;22593;-73
2022/05/13 11:45:22;;;;;;;;;;;;;;;27.10;22.39;100327.39;84762;1326;22565;-76
2022/05/13 11:47:35;;;;;;;;;;;;;;;27.08;22.61;100325.33;84797;1326;22796;-76
2022/05/13 11:49:46;;;;;;;;;;;;;;;27.04;22.45;100324.59;84812;1327;22586;-77